Time;durP1;ratioP1;P1;durP2;ratioP2;P2;SDS_P1;SDS_P2;PMS_P1;PMS_P2;Temp;Humidity;BMP_temperature;BMP_pressure;BME280_temperature;BME280_humidity;BME280_pressure;Samples;Min_cycle;Max_cycle;Signal;HPM_P1;HPM_P2
2023/04/06 00:00:08;;;;;;;;;;;;;;;5.27;57.79;98392.84;4971458;28;19918;-64
2023/04/06 00:02:34;;;;;;;;;;;;;;;5.38;58.17;98394.03;4956706;28;19918;-64
2023/04/06 00:04:59;;;;;;;;;;;;;;;5.40;60.32;98402.63;4956640;28;19922;-64
2023/04/06 00:07:25;;;;;;;;;;;;;;;5.40;58.97;98400.03;4973172;28;19992;-64
2023/04/06 00:09:50;;;;;;;;;;;;;;;5.38;57.12;98393.22;4975941;28;20319;-65
2023/04/06 00:12:15;;;;;;;;;;;;;;;5.39;57.25;98390.53;4975426;28;19953;-64
2023/04/06 00:14:40;;;;;;;;;;;;;;;5.40;58.77;98392.22;4975802;28;20446;-65
2023/04/06 00:17:06;;;;;;;;;;;;;;;5.32;56.95;98386.50;4974275;28;20268;-64
2023/04/06 00:19:31;;;;;;;;;;;;;;;5.35;59.40;98394.19;4975562;28;19918;-64
2023/04/06 00:21:56;;;;;;;;;;;;;;;5.36;58.99;98380.25;4975766;28;19945;-65
2023/04/06 00:24:21;;;;;;;;;;;;;;;5.34;59.49;98392.50;4975570;28;19970;-65
2023/04/06 00:26:47;;;;;;;;;;;;;;;5.27;59.34;98375.47;4973778;28;19926;-64
2023/04/06 00:29:12;;;;;;;;;;;;;;;5.28;59.63;98384.97;4975317;28;20427;-64
2023/04/06 00:31:37;;;;;;;;;;;;;;;5.30;58.55;98385.75;4975538;28;20377;-65
2023/04/06 00:34:02;;;;;;;;;;;;;;;5.24;59.28;98380.81;4975297;28;19926;-65
2023/04/06 00:36:28;;;;;;;;;;;;;;;5.22;58.47;98382.63;4973187;28;19918;-64
2023/04/06 00:38:53;;;;;;;;;;;;;;;5.23;57.76;98381.72;4975185;28;19918;-65
2023/04/06 00:41:18;;;;;;;;;;;;;;;5.22;59.22;98377.44;4975278;28;19990;-64
2023/04/06 00:43:43;;;;;;;;;;;;;;;5.21;59.21;98378.34;4974033;28;19918;-64
2023/04/06 00:46:09;;;;;;;;;;;;;;;5.17;58.67;98379.41;4973682;28;19977;-64
2023/04/06 00:48:34;;;;;;;;;;;;;;;5.24;60.27;98376.44;4969742;28;19949;-64
2023/04/06 00:51:00;;;;;;;;;;;;;;;5.21;60.62;98376.59;4987641;28;20368;-64
2023/04/06 00:53:25;;;;;;;;;;;;;;;5.29;59.26;98373.63;4970995;28;20354;-65
2023/04/06 00:55:50;;;;;;;;;;;;;;;5.27;60.05;98375.47;4973635;28;19953;-64
2023/04/06 00:58:16;;;;;;;;;;;;;;;5.14;57.93;98363.94;4973875;28;19921;-64
2023/04/06 01:00:42;;;;;;;;;;;;;;;5.23;60.30;98368.72;4974897;28;19956;-64
2023/04/06 01:03:07;;;;;;;;;;;;;;;5.20;61.03;98366.25;4973825;28;20411;-65
2023/04/06 01:05:33;;;;;;;;;;;;;;;5.23;60.99;98371.34;4972809;28;20029;-64
2023/04/06 01:07:58;;;;;;;;;;;;;;;5.13;56.96;98360.50;4972696;28;19922;-65
2023/04/06 01:10:24;;;;;;;;;;;;;;;4.93;59.37;98361.34;4974791;28;19924;-64
2023/04/06 01:12:50;;;;;;;;;;;;;;;4.84;59.41;98369.53;4973518;28;19981;-65
2023/04/06 01:15:15;;;;;;;;;;;;;;;4.87;59.78;98369.41;4973640;28;20380;-64
2023/04/06 01:17:41;;;;;;;;;;;;;;;4.90;60.08;98371.88;4974366;28;20404;-65
2023/04/06 01:20:06;;;;;;;;;;;;;;;4.90;56.92;98371.88;4973251;28;19985;-65
2023/04/06 01:22:31;;;;;;;;;;;;;;;4.92;59.05;98364.00;4973457;28;19914;-65
2023/04/06 01:24:57;;;;;;;;;;;;;;;4.98;61.45;98369.78;4973260;28;19919;-64
2023/04/06 01:27:22;;;;;;;;;;;;;;;5.05;59.69;98359.13;4972606;28;19928;-65
2023/04/06 01:29:47;;;;;;;;;;;;;;;5.07;61.87;98352.94;4974652;28;19950;-65
2023/04/06 01:32:12;;;;;;;;;;;;;;;5.00;60.65;98351.53;4974355;28;19938;-65
2023/04/06 01:34:38;;;;;;;;;;;;;;;4.96;59.79;98344.78;4974223;28;19918;-65
2023/04/06 01:37:03;;;;;;;;;;;;;;;4.80;58.39;98354.16;4973537;28;20380;-65
2023/04/06 01:39:28;;;;;;;;;;;;;;;4.72;59.65;98347.53;4972924;28;19968;-65
2023/04/06 01:41:53;;;;;;;;;;;;;;;4.82;62.61;98352.31;4973280;28;19929;-65
2023/04/06 01:44:19;;;;;;;;;;;;;;;4.74;57.50;98347.44;4966277;28;19925;-64
2023/04/06 01:46:45;;;;;;;;;;;;;;;4.72;61.07;98351.88;4966038;28;19929;-64
2023/04/06 01:49:10;;;;;;;;;;;;;;;4.74;61.01;98345.69;4973052;28;19917;-64
2023/04/06 01:51:36;;;;;;;;;;;;;;;4.86;61.66;98348.69;4967628;28;19919;-64
2023/04/06 01:54:01;;;;;;;;;;;;;;;4.90;61.42;98350.25;4970886;28;19914;-65
2023/04/06 01:56:26;;;;;;;;;;;;;;;4.84;59.75;98345.31;4972908;28;19918;-65
2023/04/06 01:58:51;;;;;;;;;;;;;;;4.75;61.85;98350.00;4970379;28;19964;-65
2023/04/06 02:01:16;;;;;;;;;;;;;;;4.81;60.70;98348.03;4973646;28;19921;-65
2023/04/06 02:03:42;;;;;;;;;;;;;;;4.76;61.32;98343.03;4973879;28;19996;-65
2023/04/06 02:06:07;;;;;;;;;;;;;;;4.83;61.19;98349.66;4973639;28;20539;-64
2023/04/06 02:08:32;;;;;;;;;;;;;;;4.84;59.98;98351.34;4970873;28;19918;-65
2023/04/06 02:10:57;;;;;;;;;;;;;;;4.86;59.82;98346.09;4972968;28;19918;-65
2023/04/06 02:13:23;;;;;;;;;;;;;;;4.82;58.53;98342.78;4973515;28;19960;-65
2023/04/06 02:15:48;;;;;;;;;;;;;;;4.74;59.90;98345.69;4973517;28;20327;-64
2023/04/06 02:18:13;;;;;;;;;;;;;;;4.80;60.90;98344.59;4972164;28;19934;-64
2023/04/06 02:20:38;;;;;;;;;;;;;;;4.84;60.47;98346.16;4972927;28;19918;-64
2023/04/06 02:23:04;;;;;;;;;;;;;;;4.84;59.93;98351.34;4973471;28;19918;-65
2023/04/06 02:25:29;;;;;;;;;;;;;;;4.67;59.01;98353.81;4973368;28;19997;-65
2023/04/06 02:27:54;;;;;;;;;;;;;;;4.58;61.63;98349.03;4971478;28;19968;-64
2023/04/06 02:30:19;;;;;;;;;;;;;;;4.71;61.82;98344.97;4971986;28;20419;-65
2023/04/06 02:32:45;;;;;;;;;;;;;;;4.71;61.09;98347.56;4973386;28;19914;-65
2023/04/06 02:35:10;;;;;;;;;;;;;;;4.58;56.67;98349.03;4973389;28;19953;-64
2023/04/06 02:37:35;;;;;;;;;;;;;;;4.54;61.59;98343.09;4973329;28;19914;-65
2023/04/06 02:40:00;;;;;;;;;;;;;;;4.58;62.26;98341.25;4970139;28;19933;-64
2023/04/06 02:42:26;;;;;;;;;;;;;;;4.61;60.77;98338.47;4970924;28;20383;-64
2023/04/06 02:44:51;;;;;;;;;;;;;;;4.66;61.45;98337.38;4973126;28;20273;-64
2023/04/06 02:47:16;;;;;;;;;;;;;;;4.66;60.42;98337.38;4972404;28;19922;-65
2023/04/06 02:49:41;;;;;;;;;;;;;;;4.72;61.26;98337.13;4972656;28;19918;-65
2023/04/06 02:52:07;;;;;;;;;;;;;;;4.75;61.07;98342.19;4967798;28;19922;-65
2023/04/06 02:54:32;;;;;;;;;;;;;;;4.74;60.32;98344.84;4973097;28;20463;-65
2023/04/06 02:56:57;;;;;;;;;;;;;;;4.70;61.42;98343.28;4972561;28;19973;-64
2023/04/06 02:59:22;;;;;;;;;;;;;;;4.69;60.15;98344.22;4972181;28;19918;-65
2023/04/06 03:01:48;;;;;;;;;;;;;;;4.70;60.35;98338.09;4965102;28;19926;-64
2023/04/06 03:04:13;;;;;;;;;;;;;;;4.74;60.33;98340.50;4971196;28;20300;-65
2023/04/06 03:06:38;;;;;;;;;;;;;;;4.74;60.31;98344.84;4972946;28;20033;-64
2023/04/06 03:09:03;;;;;;;;;;;;;;;4.73;60.11;98340.56;4972430;28;20328;-65
2023/04/06 03:11:29;;;;;;;;;;;;;;;4.66;60.18;98339.97;4969431;28;19972;-64
2023/04/06 03:13:54;;;;;;;;;;;;;;;4.65;61.27;98345.25;4966814;28;19997;-64
2023/04/06 03:16:19;;;;;;;;;;;;;;;4.62;61.32;98342.78;4972839;28;20696;-64
2023/04/06 03:18:46;;;;;;;;;;;;;;;4.66;61.14;98344.34;4970840;28;19968;-64
2023/04/06 03:21:12;;;;;;;;;;;;;;;4.70;61.30;98340.69;4973916;28;19918;-65
2023/04/06 03:23:37;;;;;;;;;;;;;;;4.74;61.75;98345.69;4974772;28;20134;-64
2023/04/06 03:26:02;;;;;;;;;;;;;;;4.73;61.37;98340.56;4976180;28;20403;-64
2023/04/06 03:28:28;;;;;;;;;;;;;;;4.74;62.87;98347.44;4974615;28;19914;-65
2023/04/06 03:30:53;;;;;;;;;;;;;;;4.75;62.21;98342.19;4975190;28;19918;-64
2023/04/06 03:33:18;;;;;;;;;;;;;;;4.80;62.01;98346.34;4974948;28;19921;-65
2023/04/06 03:35:43;;;;;;;;;;;;;;;4.78;61.81;98346.41;4971616;28;19929;-65
2023/04/06 03:38:09;;;;;;;;;;;;;;;4.74;61.58;98342.25;4958189;28;19921;-65
2023/04/06 03:40:34;;;;;;;;;;;;;;;4.76;60.22;98343.03;4976209;28;19924;-65
2023/04/06 03:42:59;;;;;;;;;;;;;;;4.73;60.85;98349.22;4974868;28;19918;-65
2023/04/06 03:45:24;;;;;;;;;;;;;;;4.63;61.03;98347.91;4975589;28;19925;-66
2023/04/06 03:47:50;;;;;;;;;;;;;;;4.66;61.19;98354.72;4975335;28;20315;-65
2023/04/06 03:50:15;;;;;;;;;;;;;;;4.67;61.97;98348.63;4976141;28;19914;-65
2023/04/06 03:52:40;;;;;;;;;;;;;;;4.66;61.60;98352.13;4976240;28;19950;-65
2023/04/06 03:55:06;;;;;;;;;;;;;;;4.65;61.09;98355.66;4968491;28;20013;-66
2023/04/06 03:57:31;;;;;;;;;;;;;;;4.65;61.05;98350.47;4975832;28;19934;-65
2023/04/06 03:59:56;;;;;;;;;;;;;;;4.64;61.53;98351.34;4973665;28;20303;-65
2023/04/06 04:02:22;;;;;;;;;;;;;;;4.63;63.40;98352.25;4965566;28;19918;-65
2023/04/06 04:04:47;;;;;;;;;;;;;;;4.65;62.58;98350.47;4968926;28;19919;-65
2023/04/06 04:07:12;;;;;;;;;;;;;;;4.67;62.36;98359.00;4973408;28;19922;-65
2023/04/06 04:09:37;;;;;;;;;;;;;;;4.68;61.79;98356.38;4975042;28;20435;-65
2023/04/06 04:12:03;;;;;;;;;;;;;;;4.69;61.77;98354.59;4975825;28;20300;-65
2023/04/06 04:14:28;;;;;;;;;;;;;;;4.69;61.23;98357.22;4975372;28;19914;-65
2023/04/06 04:16:53;;;;;;;;;;;;;;;4.69;62.16;98360.66;4971898;28;20384;-64
2023/04/06 04:19:18;;;;;;;;;;;;;;;4.69;62.42;98358.03;4968522;28;20291;-65
2023/04/06 04:21:44;;;;;;;;;;;;;;;4.70;62.03;98356.28;4975719;28;19925;-65
2023/04/06 04:24:10;;;;;;;;;;;;;;;4.71;62.33;98361.44;4974411;28;20311;-65
2023/04/06 04:26:35;;;;;;;;;;;;;;;4.74;61.35;98352.66;4969907;28;19922;-65
2023/04/06 04:29:00;;;;;;;;;;;;;;;4.74;62.08;98355.25;4974678;28;19918;-64
2023/04/06 04:31:25;;;;;;;;;;;;;;;4.74;62.10;98355.25;4974426;28;19937;-65
2023/04/06 04:33:50;;;;;;;;;;;;;;;4.76;61.29;98358.63;4974795;28;19918;-65
2023/04/06 04:36:16;;;;;;;;;;;;;;;4.75;61.75;98364.75;4974628;28;19954;-65
2023/04/06 04:38:41;;;;;;;;;;;;;;;4.75;61.27;98363.00;4965486;28;19918;-65
2023/04/06 04:41:06;;;;;;;;;;;;;;;4.74;60.30;98363.88;4975117;28;19961;-65
2023/04/06 04:43:32;;;;;;;;;;;;;;;4.75;61.66;98368.19;4975187;28;20399;-65
2023/04/06 04:45:58;;;;;;;;;;;;;;;4.79;61.24;98368.06;4973841;28;19953;-64
2023/04/06 04:48:24;;;;;;;;;;;;;;;4.76;61.62;98366.44;4972574;28;19922;-65
2023/04/06 04:50:49;;;;;;;;;;;;;;;4.78;60.31;98368.94;4974923;28;20291;-65
2023/04/06 04:53:14;;;;;;;;;;;;;;;4.75;61.30;98373.38;4974995;28;19914;-65
2023/04/06 04:55:40;;;;;;;;;;;;;;;4.73;60.66;98372.59;4975127;28;19921;-65
2023/04/06 04:58:05;;;;;;;;;;;;;;;4.75;61.09;98370.78;4971070;28;19917;-64
2023/04/06 05:00:31;;;;;;;;;;;;;;;4.74;60.52;98370.84;4972784;28;19925;-65
2023/04/06 05:02:56;;;;;;;;;;;;;;;4.76;60.47;98374.22;4975041;28;19960;-65
2023/04/06 05:05:21;;;;;;;;;;;;;;;4.79;61.27;98375.84;4972388;28;20586;-65
2023/04/06 05:07:47;;;;;;;;;;;;;;;4.80;61.43;98377.53;4974407;28;20276;-64
2023/04/06 05:10:12;;;;;;;;;;;;;;;4.84;61.31;98369.53;4972173;28;19918;-64
2023/04/06 05:12:37;;;;;;;;;;;;;;;4.95;61.01;98371.66;4964956;28;19925;-64
2023/04/06 05:15:02;;;;;;;;;;;;;;;4.75;52.64;98372.53;4968508;28;20372;-64
2023/04/06 05:17:28;;;;;;;;;;;;;;;3.86;51.47;98376.13;4967312;28;19918;-64
2023/04/06 05:19:53;;;;;;;;;;;;;;;3.35;52.63;98374.59;4973278;28;19976;-64
2023/04/06 05:22:18;;;;;;;;;;;;;;;2.85;54.11;98378.06;4973328;28;19914;-64
2023/04/06 05:24:43;;;;;;;;;;;;;;;2.49;54.14;98382.78;4972674;28;19926;-63
2023/04/06 05:27:09;;;;;;;;;;;;;;;2.26;55.71;98377.50;4965828;28;19946;-64
2023/04/06 05:29:34;;;;;;;;;;;;;;;2.10;57.07;98384.94;4973958;28;19918;-64
2023/04/06 05:31:59;;;;;;;;;;;;;;;1.92;56.14;98386.31;4974423;28;19914;-63
2023/04/06 05:34:24;;;;;;;;;;;;;;;1.74;56.40;98386.88;4972566;28;20009;-63
2023/04/06 05:36:50;;;;;;;;;;;;;;;1.66;57.62;98395.72;4970554;28;20371;-64
2023/04/06 05:39:15;;;;;;;;;;;;;;;1.54;57.78;98390.91;4973472;28;19949;-62
2023/04/06 05:41:40;;;;;;;;;;;;;;;1.45;57.66;98385.19;4973898;28;19914;-62
2023/04/06 05:44:06;;;;;;;;;;;;;;;1.34;58.44;98385.47;4973830;28;19937;-63
2023/04/06 05:46:31;;;;;;;;;;;;;;;1.36;59.41;98386.28;4973888;28;20407;-63
2023/04/06 05:48:56;;;;;;;;;;;;;;;1.37;59.40;98388.81;4974064;28;19918;-63
2023/04/06 05:51:21;;;;;;;;;;;;;;;1.31;59.61;98393.34;4973996;28;19949;-62
2023/04/06 05:53:47;;;;;;;;;;;;;;;1.30;59.67;98391.63;4974017;28;20465;-63
2023/04/06 05:56:12;;;;;;;;;;;;;;;1.32;60.38;98395.84;4973282;28;19914;-63
2023/04/06 05:58:37;;;;;;;;;;;;;;;1.37;60.23;98398.31;4972741;28;19925;-62
2023/04/06 06:01:03;;;;;;;;;;;;;;;1.36;60.67;98394.03;4974343;28;19914;-63
2023/04/06 18:52:23;;;;;;;;;;;;;;;9.37;40.02;98184.66;5953140;23;19927;-61
2023/04/06 18:54:49;;;;;;;;;;;;;;;9.25;39.95;98187.09;4976319;28;19922;-63
2023/04/06 18:57:14;;;;;;;;;;;;;;;9.16;40.29;98185.06;4975193;28;19914;-62
2023/04/06 18:59:39;;;;;;;;;;;;;;;9.09;40.46;98189.00;4976906;28;20012;-62
2023/04/06 19:02:05;;;;;;;;;;;;;;;9.03;40.26;98189.38;4975383;28;19996;-63
2023/04/06 19:04:30;;;;;;;;;;;;;;;8.92;40.05;98184.00;4971905;28;19918;-62
2023/04/06 19:06:55;;;;;;;;;;;;;;;8.80;40.23;98193.41;4976489;28;19972;-62
2023/04/06 19:09:20;;;;;;;;;;;;;;;8.71;40.41;98186.16;4977483;28;19922;-61
2023/04/06 19:11:46;;;;;;;;;;;;;;;8.59;41.43;98192.97;4970532;28;19914;-61
2023/04/06 19:14:11;;;;;;;;;;;;;;;8.53;41.78;98198.56;4974958;28;20065;-62
2023/04/06 19:16:39;;;;;;;;;;;;;;;8.44;42.44;98194.72;4975632;28;20013;-62
2023/04/06 19:19:05;;;;;;;;;;;;;;;8.33;42.22;98192.72;4976786;28;19914;-62
2023/04/06 19:21:30;;;;;;;;;;;;;;;8.23;42.98;98194.22;4975972;28;19918;-63
2023/04/06 19:23:55;;;;;;;;;;;;;;;8.14;43.14;98192.13;4969088;28;19946;-64
2023/04/06 19:26:21;;;;;;;;;;;;;;;8.09;42.79;98192.41;4966196;28;19938;-63
2023/04/06 19:28:46;;;;;;;;;;;;;;;8.00;43.53;98199.94;4959676;28;19918;-64
2023/04/06 19:31:13;;;;;;;;;;;;;;;7.93;43.72;98198.63;4965815;28;19962;-65
2023/04/06 19:33:39;;;;;;;;;;;;;;;7.90;43.40;98193.56;4976830;28;19918;-65
2023/04/06 19:36:04;;;;;;;;;;;;;;;7.82;43.82;98196.63;4972428;28;19918;-65
2023/04/06 19:38:31;;;;;;;;;;;;;;;7.73;44.26;98187.53;4967262;28;19940;-64
2023/04/06 19:40:56;;;;;;;;;;;;;;;7.71;44.34;98193.75;4969776;28;19926;-64
2023/04/06 19:43:21;;;;;;;;;;;;;;;7.57;44.44;98198.03;4979986;28;20570;-65
2023/04/06 19:45:47;;;;;;;;;;;;;;;7.53;43.73;98198.25;4977061;28;20000;-65
2023/04/06 19:48:12;;;;;;;;;;;;;;;7.45;44.29;98203.09;4975865;28;20009;-65
2023/04/06 19:50:37;;;;;;;;;;;;;;;7.37;44.51;98196.53;4957244;28;19919;-63
2023/04/06 19:53:02;;;;;;;;;;;;;;;7.28;44.83;98201.41;4974705;28;19933;-65
2023/04/06 19:55:28;;;;;;;;;;;;;;;7.24;45.03;98200.72;4979044;28;19918;-64
2023/04/06 19:57:53;;;;;;;;;;;;;;;7.16;46.25;98202.94;4972388;28;19972;-64
2023/04/06 20:00:18;;;;;;;;;;;;;;;7.11;45.91;98204.94;4969280;28;20009;-64
2023/04/06 20:02:43;;;;;;;;;;;;;;;7.04;47.20;98203.59;4967713;28;20008;-65
2023/04/06 20:05:09;;;;;;;;;;;;;;;7.00;46.95;98202.06;4967756;28;19965;-64
2023/04/06 20:07:36;;;;;;;;;;;;;;;6.92;47.87;98199.03;4957330;28;19921;-64
2023/04/06 20:10:02;;;;;;;;;;;;;;;6.90;47.95;98202.56;4965089;28;20357;-65
2023/04/06 20:12:27;;;;;;;;;;;;;;;6.93;47.90;98203.34;4972407;28;19973;-64
2023/04/06 20:14:53;;;;;;;;;;;;;;;6.66;48.73;98203.88;4969235;28;19922;-64
2023/04/06 20:17:20;;;;;;;;;;;;;;;6.72;48.94;98205.31;4961831;28;22545;-64
2023/04/06 20:19:46;;;;;;;;;;;;;;;6.58;49.07;98211.25;4964740;28;20005;-64
2023/04/06 20:22:11;;;;;;;;;;;;;;;6.41;49.28;98207.75;4962554;28;20446;-65
2023/04/06 20:24:36;;;;;;;;;;;;;;;6.35;49.33;98210.66;4968036;28;20008;-65
2023/04/06 20:27:02;;;;;;;;;;;;;;;6.23;49.86;98202.63;4975299;28;19926;-64
2023/04/06 20:29:27;;;;;;;;;;;;;;;6.22;50.14;98209.59;4967498;28;19925;-64
2023/04/06 20:31:52;;;;;;;;;;;;;;;6.18;49.82;98202.88;4975352;28;20032;-65
2023/04/06 20:34:17;;;;;;;;;;;;;;;6.07;50.25;98200.81;4968842;28;20005;-64
2023/04/06 20:36:44;;;;;;;;;;;;;;;6.06;50.48;98208.72;4973525;28;19953;-64
2023/04/06 20:39:10;;;;;;;;;;;;;;;6.01;50.61;98202.88;4967887;28;19918;-64
2023/04/06 20:41:35;;;;;;;;;;;;;;;5.97;50.86;98203.97;4970012;28;20383;-64
2023/04/06 20:44:00;;;;;;;;;;;;;;;5.84;51.02;98207.13;4970961;28;19918;-64
2023/04/06 20:46:25;;;;;;;;;;;;;;;5.83;51.11;98207.22;4978438;28;19990;-64
2023/04/06 20:48:51;;;;;;;;;;;;;;;5.87;51.88;98211.34;4977914;28;19925;-64
2023/04/06 20:51:19;;;;;;;;;;;;;;;5.85;51.81;98206.22;4976176;28;20004;-64
2023/04/06 20:53:45;;;;;;;;;;;;;;;5.79;51.60;98208.28;4977086;28;19926;-65
2023/04/06 20:56:11;;;;;;;;;;;;;;;5.73;51.81;98212.03;4970469;28;19921;-64
2023/04/06 20:58:36;;;;;;;;;;;;;;;5.71;52.17;98208.66;4971543;28;19919;-65
2023/04/06 21:01:01;;;;;;;;;;;;;;;5.66;51.83;98210.66;4965905;28;19919;-64
2023/04/06 21:03:26;;;;;;;;;;;;;;;5.64;52.35;98205.53;4986574;28;19917;-64
2023/04/06 21:05:52;;;;;;;;;;;;;;;5.60;52.16;98201.38;4966628;28;20033;-64
2023/04/06 21:08:17;;;;;;;;;;;;;;;5.58;52.22;98202.38;4966354;28;19946;-64
2023/04/06 21:10:43;;;;;;;;;;;;;;;5.54;51.99;98203.41;4972179;28;19925;-65
2023/04/06 21:13:08;;;;;;;;;;;;;;;5.52;52.83;98202.66;4955302;28;20276;-64
2023/04/06 21:15:33;;;;;;;;;;;;;;;5.37;52.92;98199.88;4971633;28;20386;-64
2023/04/06 21:17:58;;;;;;;;;;;;;;;5.32;52.91;98201.84;4969284;28;19949;-64
2023/04/06 21:20:24;;;;;;;;;;;;;;;5.25;53.18;98200.44;4974645;28;19918;-64
2023/04/06 21:22:49;;;;;;;;;;;;;;;5.27;52.89;98196.03;4972941;28;20195;-64
2023/04/06 21:25:14;;;;;;;;;;;;;;;5.23;53.42;98194.50;4972834;28;19922;-63
